sensor_id;sensor_type;location;lat;lon;timestamp;pressure;altitude;pressure_sealevel;temperature;humidity
40948;BME280;49382;-25.924;28.194;2023-05-20T00:01:20;85233.77;;;13.16;29.12
40948;BME280;49382;-25.924;28.194;2023-05-20T00:03:46;85230.26;;;13.36;28.53
40948;BME280;49382;-25.924;28.194;2023-05-20T00:06:11;85228.45;;;13.50;28.05
40948;BME280;49382;-25.924;28.194;2023-05-20T00:08:37;85224.95;;;13.88;28.30
40948;BME280;49382;-25.924;28.194;2023-05-20T00:11:03;85220.53;;;13.20;29.39
40948;BME280;49382;-25.924;28.194;2023-05-20T00:13:28;85225.15;;;12.68;30.02
40948;BME280;49382;-25.924;28.194;2023-05-20T00:15:53;85233.86;;;12.25;31.02
40948;BME280;49382;-25.924;28.194;2023-05-20T00:18:19;85230.55;;;13.17;29.81
40948;BME280;49382;-25.924;28.194;2023-05-20T00:20:45;85232.32;;;13.27;29.92
40948;BME280;49382;-25.924;28.194;2023-05-20T00:23:10;85233.05;;;13.48;29.34
40948;BME280;49382;-25.924;28.194;2023-05-20T00:25:36;85229.00;;;13.49;28.64
40948;BME280;49382;-25.924;28.194;2023-05-20T00:28:01;85225.14;;;13.46;28.80
40948;BME280;49382;-25.924;28.194;2023-05-20T00:30:27;85221.53;;;13.23;29.24
40948;BME280;49382;-25.924;28.194;2023-05-20T00:32:52;85220.91;;;13.69;29.57
40948;BME280;49382;-25.924;28.194;2023-05-20T00:35:18;85216.90;;;13.27;29.71
40948;BME280;49382;-25.924;28.194;2023-05-20T00:37:43;85215.25;;;13.25;29.93
40948;BME280;49382;-25.924;28.194;2023-05-20T00:40:09;85212.45;;;13.17;29.79
40948;BME280;49382;-25.924;28.194;2023-05-20T00:42:34;85214.77;;;13.32;29.89
40948;BME280;49382;-25.924;28.194;2023-05-20T00:44:59;85218.39;;;12.95;30.42
40948;BME280;49382;-25.924;28.194;2023-05-20T00:47:29;85218.52;;;12.97;30.70
40948;BME280;49382;-25.924;28.194;2023-05-20T00:49:51;85218.66;;;13.15;30.33
40948;BME280;49382;-25.924;28.194;2023-05-20T00:52:16;85219.88;;;12.74;30.62
40948;BME280;49382;-25.924;28.194;2023-05-20T00:54:41;85221.23;;;11.90;31.74
40948;BME280;49382;-25.924;28.194;2023-05-20T00:57:07;85218.98;;;12.80;30.81
40948;BME280;49382;-25.924;28.194;2023-05-20T00:59:32;85220.78;;;12.67;30.88
40948;BME280;49382;-25.924;28.194;2023-05-20T01:01:57;85222.46;;;13.42;29.89
40948;BME280;49382;-25.924;28.194;2023-05-20T01:04:22;85220.21;;;13.08;30.07
40948;BME280;49382;-25.924;28.194;2023-05-20T01:06:48;85219.80;;;13.00;29.98
40948;BME280;49382;-25.924;28.194;2023-05-20T01:09:14;85221.84;;;12.35;31.20
40948;BME280;49382;-25.924;28.194;2023-05-20T01:11:43;85224.14;;;13.30;30.62
40948;BME280;49382;-25.924;28.194;2023-05-20T01:14:06;85228.37;;;13.12;30.67
40948;BME280;49382;-25.924;28.194;2023-05-20T01:16:30;85232.64;;;12.11;31.16
40948;BME280;49382;-25.924;28.194;2023-05-20T01:18:55;85233.35;;;11.89;32.01
40948;BME280;49382;-25.924;28.194;2023-05-20T01:21:20;85230.60;;;10.97;33.59
40948;BME280;49382;-25.924;28.194;2023-05-20T01:23:45;85231.63;;;11.59;33.69
40948;BME280;49382;-25.924;28.194;2023-05-20T01:26:10;85232.72;;;12.58;32.82
40948;BME280;49382;-25.924;28.194;2023-05-20T01:28:37;85230.14;;;12.80;31.87
40948;BME280;49382;-25.924;28.194;2023-05-20T01:31:05;85228.07;;;12.87;31.38
40948;BME280;49382;-25.924;28.194;2023-05-20T01:33:29;85224.81;;;13.01;30.99
40948;BME280;49382;-25.924;28.194;2023-05-20T01:35:53;85226.02;;;13.50;30.24
40948;BME280;49382;-25.924;28.194;2023-05-20T01:38:19;85228.83;;;12.40;31.45
40948;BME280;49382;-25.924;28.194;2023-05-20T01:40:46;85232.01;;;12.53;32.16
40948;BME280;49382;-25.924;28.194;2023-05-20T01:43:10;85237.45;;;11.99;32.83
40948;BME280;49382;-25.924;28.194;2023-05-20T01:45:35;85239.91;;;11.84;33.26
40948;BME280;49382;-25.924;28.194;2023-05-20T01:48:02;85245.50;;;12.12;32.34
40948;BME280;49382;-25.924;28.194;2023-05-20T01:50:27;85240.08;;;12.82;31.53
40948;BME280;49382;-25.924;28.194;2023-05-20T01:52:52;85242.22;;;12.17;32.33
40948;BME280;49382;-25.924;28.194;2023-05-20T01:55:17;85242.73;;;11.76;33.15
40948;BME280;49382;-25.924;28.194;2023-05-20T01:57:43;85237.71;;;11.36;33.42
40948;BME280;49382;-25.924;28.194;2023-05-20T02:00:09;85237.03;;;11.77;33.25
40948;BME280;49382;-25.924;28.194;2023-05-20T02:02:33;85236.53;;;11.53;33.50
40948;BME280;49382;-25.924;28.194;2023-05-20T02:04:59;85240.46;;;12.11;32.87
40948;BME280;49382;-25.924;28.194;2023-05-20T02:07:25;85242.73;;;12.27;32.39
40948;BME280;49382;-25.924;28.194;2023-05-20T02:09:50;85245.19;;;12.22;32.19
40948;BME280;49382;-25.924;28.194;2023-05-20T02:12:15;85248.44;;;12.34;32.18
40948;BME280;49382;-25.924;28.194;2023-05-20T02:14:40;85248.69;;;12.64;32.04
40948;BME280;49382;-25.924;28.194;2023-05-20T02:17:06;85249.48;;;12.52;32.57
40948;BME280;49382;-25.924;28.194;2023-05-20T02:19:31;85250.44;;;12.30;33.15
40948;BME280;49382;-25.924;28.194;2023-05-20T02:21:57;85253.10;;;12.24;33.21
40948;BME280;49382;-25.924;28.194;2023-05-20T02:24:22;85249.37;;;12.94;32.56
40948;BME280;49382;-25.924;28.194;2023-05-20T02:26:47;85253.08;;;12.63;32.59
40948;BME280;49382;-25.924;28.194;2023-05-20T02:29:13;85251.30;;;12.47;32.55
40948;BME280;49382;-25.924;28.194;2023-05-20T02:31:38;85249.31;;;12.44;32.28
40948;BME280;49382;-25.924;28.194;2023-05-20T02:34:03;85253.95;;;12.24;32.30
40948;BME280;49382;-25.924;28.194;2023-05-20T02:36:29;85252.35;;;12.18;33.51
40948;BME280;49382;-25.924;28.194;2023-05-20T02:38:54;85255.06;;;12.59;33.03
40948;BME280;49382;-25.924;28.194;2023-05-20T02:41:19;85256.50;;;12.26;33.35
40948;BME280;49382;-25.924;28.194;2023-05-20T02:43:45;85253.64;;;12.40;33.65
40948;BME280;49382;-25.924;28.194;2023-05-20T02:46:10;85250.78;;;12.63;33.05
40948;BME280;49382;-25.924;28.194;2023-05-20T02:48:36;85249.42;;;12.20;33.59
40948;BME280;49382;-25.924;28.194;2023-05-20T02:51:01;85247.60;;;12.19;33.33
40948;BME280;49382;-25.924;28.194;2023-05-20T02:53:26;85240.86;;;12.99;32.43
40948;BME280;49382;-25.924;28.194;2023-05-20T02:55:52;85241.60;;;12.88;32.15
40948;BME280;49382;-25.924;28.194;2023-05-20T02:58:17;85239.04;;;12.69;32.29
40948;BME280;49382;-25.924;28.194;2023-05-20T03:00:42;85241.69;;;12.91;31.72
40948;BME280;49382;-25.924;28.194;2023-05-20T03:03:09;85246.67;;;12.25;32.40
40948;BME280;49382;-25.924;28.194;2023-05-20T03:05:34;85245.09;;;11.74;32.84
40948;BME280;49382;-25.924;28.194;2023-05-20T03:07:59;85243.04;;;11.06;33.71
40948;BME280;49382;-25.924;28.194;2023-05-20T03:10:25;85246.22;;;11.32;33.96
40948;BME280;49382;-25.924;28.194;2023-05-20T03:12:50;85250.35;;;11.47;33.85
40948;BME280;49382;-25.924;28.194;2023-05-20T03:15:16;85252.57;;;11.50;34.37
40948;BME280;49382;-25.924;28.194;2023-05-20T03:17:41;85254.20;;;12.00;33.53
40948;BME280;49382;-25.924;28.194;2023-05-20T03:20:07;85252.77;;;12.50;33.00
40948;BME280;49382;-25.924;28.194;2023-05-20T03:22:32;85246.09;;;12.67;32.65
40948;BME280;49382;-25.924;28.194;2023-05-20T03:24:58;85246.20;;;12.77;32.26
40948;BME280;49382;-25.924;28.194;2023-05-20T03:27:23;85237.91;;;12.84;31.72
40948;BME280;49382;-25.924;28.194;2023-05-20T03:29:49;85238.89;;;12.76;31.49
40948;BME280;49382;-25.924;28.194;2023-05-20T03:32:15;85232.45;;;12.47;31.44
40948;BME280;49382;-25.924;28.194;2023-05-20T03:34:40;85235.18;;;11.66;32.32
40948;BME280;49382;-25.924;28.194;2023-05-20T03:37:06;85239.77;;;11.91;31.51
40948;BME280;49382;-25.924;28.194;2023-05-20T03:39:32;85240.33;;;12.12;32.12
40948;BME280;49382;-25.924;28.194;2023-05-20T03:41:57;85241.00;;;12.32;32.36
40948;BME280;49382;-25.924;28.194;2023-05-20T03:44:23;85244.92;;;12.50;32.13
40948;BME280;49382;-25.924;28.194;2023-05-20T03:46:48;85247.05;;;12.59;31.93
40948;BME280;49382;-25.924;28.194;2023-05-20T03:49:14;85252.06;;;12.13;31.71
40948;BME280;49382;-25.924;28.194;2023-05-20T03:51:39;85255.63;;;11.69;32.85
40948;BME280;49382;-25.924;28.194;2023-05-20T03:54:04;85257.29;;;11.59;33.03
40948;BME280;49382;-25.924;28.194;2023-05-20T03:56:30;85257.57;;;10.94;33.56
40948;BME280;49382;-25.924;28.194;2023-05-20T03:58:56;85261.10;;;10.88;33.88
40948;BME280;49382;-25.924;28.194;2023-05-20T04:01:21;85263.73;;;11.74;32.92
40948;BME280;49382;-25.924;28.194;2023-05-20T04:03:47;85266.97;;;11.68;32.86
40948;BME280;49382;-25.924;28.194;2023-05-20T04:06:13;85263.40;;;11.74;32.91
40948;BME280;49382;-25.924;28.194;2023-05-20T04:08:38;85267.22;;;12.10;32.68
40948;BME280;49382;-25.924;28.194;2023-05-20T04:11:03;85269.17;;;12.12;32.38
40948;BME280;49382;-25.924;28.194;2023-05-20T04:13:29;85275.44;;;12.00;32.54
40948;BME280;49382;-25.924;28.194;2023-05-20T04:15:54;85275.39;;;12.33;32.19
40948;BME280;49382;-25.924;28.194;2023-05-20T04:18:19;85277.39;;;12.52;32.00
40948;BME280;49382;-25.924;28.194;2023-05-20T04:20:45;85273.33;;;12.41;32.02
40948;BME280;49382;-25.924;28.194;2023-05-20T04:23:10;85274.15;;;12.15;32.02
40948;BME280;49382;-25.924;28.194;2023-05-20T04:25:35;85276.30;;;12.72;31.84
40948;BME280;49382;-25.924;28.194;2023-05-20T04:28:01;85278.93;;;11.96;32.36
40948;BME280;49382;-25.924;28.194;2023-05-20T04:30:26;85278.72;;;12.06;32.42
40948;BME280;49382;-25.924;28.194;2023-05-20T04:32:53;85277.69;;;12.17;32.27
40948;BME280;49382;-25.924;28.194;2023-05-20T04:35:18;85282.70;;;12.04;32.80
40948;BME280;49382;-25.924;28.194;2023-05-20T04:37:43;85286.03;;;11.99;33.00
40948;BME280;49382;-25.924;28.194;2023-05-20T04:40:10;85294.04;;;11.83;33.16
40948;BME280;49382;-25.924;28.194;2023-05-20T04:42:34;85300.09;;;11.91;32.64
40948;BME280;49382;-25.924;28.194;2023-05-20T04:44:59;85305.31;;;11.99;32.18
40948;BME280;49382;-25.924;28.194;2023-05-20T04:47:25;85305.53;;;12.21;31.70
40948;BME280;49382;-25.924;28.194;2023-05-20T04:49:50;85305.54;;;12.17;31.40
40948;BME280;49382;-25.924;28.194;2023-05-20T04:52:15;85305.50;;;12.59;30.81
40948;BME280;49382;-25.924;28.194;2023-05-20T04:54:41;85307.53;;;12.63;30.64
40948;BME280;49382;-25.924;28.194;2023-05-20T04:57:06;85309.91;;;12.32;31.01
40948;BME280;49382;-25.924;28.194;2023-05-20T04:59:32;85313.00;;;12.33;31.00
40948;BME280;49382;-25.924;28.194;2023-05-20T05:01:57;85313.94;;;12.56;30.87
40948;BME280;49382;-25.924;28.194;2023-05-20T05:04:23;85312.50;;;12.82;30.70
40948;BME280;49382;-25.924;28.194;2023-05-20T05:06:49;85317.95;;;13.25;31.35
40948;BME280;49382;-25.924;28.194;2023-05-20T05:09:14;85320.73;;;12.78;31.33
40948;BME280;49382;-25.924;28.194;2023-05-20T05:11:40;85326.22;;;13.12;30.50
40948;BME280;49382;-25.924;28.194;2023-05-20T05:14:05;85320.10;;;13.49;30.19
40948;BME280;49382;-25.924;28.194;2023-05-20T05:16:30;85327.26;;;13.42;30.46
40948;BME280;49382;-25.924;28.194;2023-05-20T05:18:56;85326.54;;;13.60;30.34
40948;BME280;49382;-25.924;28.194;2023-05-20T05:21:21;85328.88;;;13.64;30.55
40948;BME280;49382;-25.924;28.194;2023-05-20T05:23:47;85339.74;;;13.28;31.35
40948;BME280;49382;-25.924;28.194;2023-05-20T05:26:12;85344.25;;;13.32;31.26
40948;BME280;49382;-25.924;28.194;2023-05-20T05:28:39;85349.28;;;13.34;31.56
40948;BME280;49382;-25.924;28.194;2023-05-20T05:31:03;85353.64;;;13.63;31.50
40948;BME280;49382;-25.924;28.194;2023-05-20T05:33:29;85355.19;;;13.33;32.38
40948;BME280;49382;-25.924;28.194;2023-05-20T05:35:54;85354.51;;;13.29;32.60
40948;BME280;49382;-25.924;28.194;2023-05-20T05:38:20;85357.38;;;13.16;32.87
40948;BME280;49382;-25.924;28.194;2023-05-20T05:40:45;85356.71;;;13.78;32.16
40948;BME280;49382;-25.924;28.194;2023-05-20T05:43:11;85363.16;;;13.17;33.03
40948;BME280;49382;-25.924;28.194;2023-05-20T05:45:36;85363.07;;;13.34;32.92
40948;BME280;49382;-25.924;28.194;2023-05-20T05:48:02;85357.58;;;13.84;32.76
40948;BME280;49382;-25.924;28.194;2023-05-20T05:50:27;85357.95;;;13.82;33.00
40948;BME280;49382;-25.924;28.194;2023-05-20T05:52:53;85357.51;;;14.19;32.13
40948;BME280;49382;-25.924;28.194;2023-05-20T05:55:18;85363.54;;;14.79;32.17
40948;BME280;49382;-25.924;28.194;2023-05-20T05:57:43;85364.82;;;14.37;31.54
40948;BME280;49382;-25.924;28.194;2023-05-20T06:00:10;85369.07;;;14.41;31.71
40948;BME280;49382;-25.924;28.194;2023-05-20T06:02:34;85371.73;;;14.44;33.27
40948;BME280;49382;-25.924;28.194;2023-05-20T06:05:00;85379.02;;;14.77;32.67
40948;BME280;49382;-25.924;28.194;2023-05-20T06:07:25;85379.78;;;15.19;31.55
40948;BME280;49382;-25.924;28.194;2023-05-20T06:09:50;85382.08;;;15.21;32.01
40948;BME280;49382;-25.924;28.194;2023-05-20T06:12:16;85382.72;;;15.82;32.23
40948;BME280;49382;-25.924;28.194;2023-05-20T06:14:41;85385.74;;;16.18;32.13
40948;BME280;49382;-25.924;28.194;2023-05-20T06:17:07;85384.84;;;16.47;31.18
40948;BME280;49382;-25.924;28.194;2023-05-20T06:19:32;85381.37;;;16.57;30.97
40948;BME280;49382;-25.924;28.194;2023-05-20T06:21:57;85385.64;;;16.58;29.78
40948;BME280;49382;-25.924;28.194;2023-05-20T06:24:23;85387.28;;;16.48;29.88
40948;BME280;49382;-25.924;28.194;2023-05-20T06:26:48;85393.22;;;17.06;28.52
40948;BME280;49382;-25.924;28.194;2023-05-20T06:29:14;85392.41;;;17.05;29.17
40948;BME280;49382;-25.924;28.194;2023-05-20T06:31:39;85399.26;;;17.55;27.76
40948;BME280;49382;-25.924;28.194;2023-05-20T06:34:04;85408.37;;;17.39;28.22
40948;BME280;49382;-25.924;28.194;2023-05-20T06:36:30;85410.57;;;18.06;28.52
40948;BME280;49382;-25.924;28.194;2023-05-20T06:38:55;85409.99;;;18.25;27.63
40948;BME280;49382;-25.924;28.194;2023-05-20T06:41:21;85413.70;;;18.31;27.81
40948;BME280;49382;-25.924;28.194;2023-05-20T06:43:46;85418.60;;;18.83;26.18
40948;BME280;49382;-25.924;28.194;2023-05-20T06:46:12;85421.00;;;19.40;25.70
40948;BME280;49382;-25.924;28.194;2023-05-20T06:48:37;85417.59;;;19.94;25.09
40948;BME280;49382;-25.924;28.194;2023-05-20T06:51:06;85423.62;;;20.86;23.87
40948;BME280;49382;-25.924;28.194;2023-05-20T06:53:28;85437.34;;;25.24;20.76
40948;BME280;49382;-25.924;28.194;2023-05-20T06:55:54;85446.70;;;30.31;16.61
40948;BME280;49382;-25.924;28.194;2023-05-20T06:58:20;85445.03;;;33.71;13.60
40948;BME280;49382;-25.924;28.194;2023-05-20T07:00:46;85449.66;;;35.53;11.84
40948;BME280;49382;-25.924;28.194;2023-05-20T07:03:11;85447.20;;;36.91;10.45
40948;BME280;49382;-25.924;28.194;2023-05-20T07:05:36;85451.77;;;38.54;9.60
40948;BME280;49382;-25.924;28.194;2023-05-20T07:08:01;85457.61;;;40.19;8.51
40948;BME280;49382;-25.924;28.194;2023-05-20T07:10:28;85455.27;;;41.42;7.68
40948;BME280;49382;-25.924;28.194;2023-05-20T07:12:53;85451.36;;;41.63;7.12
40948;BME280;49382;-25.924;28.194;2023-05-20T07:15:18;85451.49;;;42.16;6.80
40948;BME280;49382;-25.924;28.194;2023-05-20T07:17:44;85449.27;;;42.33;6.85
40948;BME280;49382;-25.924;28.194;2023-05-20T07:20:10;85452.53;;;42.71;6.44
40948;BME280;49382;-25.924;28.194;2023-05-20T07:22:36;85460.03;;;43.12;6.97
40948;BME280;49382;-25.924;28.194;2023-05-20T07:25:01;85463.49;;;43.67;5.52
40948;BME280;49382;-25.924;28.194;2023-05-20T07:27:27;85464.58;;;43.05;5.47
40948;BME280;49382;-25.924;28.194;2023-05-20T07:29:53;85465.23;;;44.50;4.88
40948;BME280;49382;-25.924;28.194;2023-05-20T07:32:18;85466.83;;;46.74;4.02
40948;BME280;49382;-25.924;28.194;2023-05-20T07:34:44;85462.20;;;44.15;4.55
40948;BME280;49382;-25.924;28.194;2023-05-20T07:37:10;85458.57;;;46.42;3.85
40948;BME280;49382;-25.924;28.194;2023-05-20T07:39:36;85453.55;;;46.73;4.08
40948;BME280;49382;-25.924;28.194;2023-05-20T07:42:01;85454.07;;;47.61;3.30
40948;BME280;49382;-25.924;28.194;2023-05-20T07:44:27;85451.52;;;47.13;2.74
40948;BME280;49382;-25.924;28.194;2023-05-20T07:46:53;85451.11;;;48.77;2.51
40948;BME280;49382;-25.924;28.194;2023-05-20T07:49:18;85447.23;;;48.52;2.42
40948;BME280;49382;-25.924;28.194;2023-05-20T07:51:44;85445.63;;;48.83;2.32
40948;BME280;49382;-25.924;28.194;2023-05-20T07:54:10;85448.88;;;49.95;2.03
40948;BME280;49382;-25.924;28.194;2023-05-20T07:56:36;85451.23;;;49.68;2.03
40948;BME280;49382;-25.924;28.194;2023-05-20T07:59:01;85454.74;;;50.31;1.56
40948;BME280;49382;-25.924;28.194;2023-05-20T08:01:27;85454.40;;;49.85;1.81
40948;BME280;49382;-25.924;28.194;2023-05-20T08:03:53;85456.77;;;51.29;1.58
40948;BME280;49382;-25.924;28.194;2023-05-20T08:06:18;85455.27;;;49.78;1.62
40948;BME280;49382;-25.924;28.194;2023-05-20T08:08:44;85453.37;;;48.09;1.87
40948;BME280;49382;-25.924;28.194;2023-05-20T08:11:09;85453.94;;;47.83;2.39
40948;BME280;49382;-25.924;28.194;2023-05-20T08:13:35;85451.95;;;47.54;2.34
40948;BME280;49382;-25.924;28.194;2023-05-20T08:16:01;85451.35;;;48.65;1.90
40948;BME280;49382;-25.924;28.194;2023-05-20T08:18:27;85451.95;;;48.23;2.33
40948;BME280;49382;-25.924;28.194;2023-05-20T08:20:51;85447.89;;;48.21;2.28
40948;BME280;49382;-25.924;28.194;2023-05-20T08:23:17;85454.80;;;51.05;1.48
40948;BME280;49382;-25.924;28.194;2023-05-20T08:25:43;85448.78;;;49.28;1.89
40948;BME280;49382;-25.924;28.194;2023-05-20T08:28:08;85448.28;;;49.38;1.76
40948;BME280;49382;-25.924;28.194;2023-05-20T08:30:34;85447.01;;;52.02;1.52
40948;BME280;49382;-25.924;28.194;2023-05-20T08:32:59;85444.38;;;52.37;1.98
40948;BME280;49382;-25.924;28.194;2023-05-20T08:35:25;85441.76;;;52.12;1.38
40948;BME280;49382;-25.924;28.194;2023-05-20T08:37:51;85441.22;;;52.19;1.29
40948;BME280;49382;-25.924;28.194;2023-05-20T08:40:16;85439.89;;;50.00;1.90
40948;BME280;49382;-25.924;28.194;2023-05-20T08:42:42;85432.77;;;48.15;2.80
40948;BME280;49382;-25.924;28.194;2023-05-20T08:45:10;85434.98;;;52.49;1.64
40948;BME280;49382;-25.924;28.194;2023-05-20T08:47:33;85437.12;;;51.27;0.93
40948;BME280;49382;-25.924;28.194;2023-05-20T08:49:59;85435.11;;;52.22;1.32
40948;BME280;49382;-25.924;28.194;2023-05-20T08:52:25;85429.92;;;49.44;2.19
40948;BME280;49382;-25.924;28.194;2023-05-20T08:54:50;85425.83;;;51.31;1.13
40948;BME280;49382;-25.924;28.194;2023-05-20T08:57:15;85413.81;;;49.89;1.09
40948;BME280;49382;-25.924;28.194;2023-05-20T08:59:42;85412.10;;;49.58;2.31
40948;BME280;49382;-25.924;28.194;2023-05-20T09:02:07;85406.53;;;50.27;1.70
40948;BME280;49382;-25.924;28.194;2023-05-20T09:04:32;85370.93;;;37.08;5.50
40948;BME280;49382;-25.924;28.194;2023-05-20T09:06:57;85370.69;;;33.98;8.43
40948;BME280;49382;-25.924;28.194;2023-05-20T09:09:23;85365.07;;;32.00;9.34
40948;BME280;49382;-25.924;28.194;2023-05-20T09:11:49;85361.17;;;30.97;10.47
40948;BME280;49382;-25.924;28.194;2023-05-20T09:14:14;85354.25;;;29.60;10.51
40948;BME280;49382;-25.924;28.194;2023-05-20T09:16:40;85350.74;;;27.46;12.73
40948;BME280;49382;-25.924;28.194;2023-05-20T09:19:06;85349.32;;;27.82;13.95
40948;BME280;49382;-25.924;28.194;2023-05-20T09:21:30;85345.01;;;26.66;13.90
40948;BME280;49382;-25.924;28.194;2023-05-20T09:23:55;85345.42;;;26.76;15.12
40948;BME280;49382;-25.924;28.194;2023-05-20T09:26:21;85344.07;;;25.38;14.34
40948;BME280;49382;-25.924;28.194;2023-05-20T09:28:47;85343.28;;;24.69;14.05
40948;BME280;49382;-25.924;28.194;2023-05-20T09:31:14;85343.94;;;25.17;15.93
40948;BME280;49382;-25.924;28.194;2023-05-20T09:33:38;85338.90;;;24.47;14.65
40948;BME280;49382;-25.924;28.194;2023-05-20T09:36:06;85341.18;;;24.98;15.24
40948;BME280;49382;-25.924;28.194;2023-05-20T09:38:32;85331.76;;;24.27;16.51
40948;BME280;49382;-25.924;28.194;2023-05-20T09:40:55;85329.87;;;22.98;16.91
40948;BME280;49382;-25.924;28.194;2023-05-20T09:43:21;85323.84;;;23.57;16.43
40948;BME280;49382;-25.924;28.194;2023-05-20T09:45:46;85324.00;;;22.76;17.30
40948;BME280;49382;-25.924;28.194;2023-05-20T09:48:12;85323.47;;;23.24;16.22
40948;BME280;49382;-25.924;28.194;2023-05-20T09:50:38;85313.72;;;23.93;16.59
40948;BME280;49382;-25.924;28.194;2023-05-20T09:53:04;85309.12;;;24.33;16.36
40948;BME280;49382;-25.924;28.194;2023-05-20T09:55:30;85305.08;;;23.92;15.89
40948;BME280;49382;-25.924;28.194;2023-05-20T09:57:55;85301.21;;;24.36;17.21
40948;BME280;49382;-25.924;28.194;2023-05-20T10:00:21;85304.18;;;22.58;17.99
40948;BME280;49382;-25.924;28.194;2023-05-20T10:02:49;85298.14;;;23.56;16.44
40948;BME280;49382;-25.924;28.194;2023-05-20T10:05:16;85298.60;;;23.33;16.39
40948;BME280;49382;-25.924;28.194;2023-05-20T10:07:51;85296.26;;;23.38;16.24
40948;BME280;49382;-25.924;28.194;2023-05-20T10:10:15;85291.36;;;23.42;15.00
40948;BME280;49382;-25.924;28.194;2023-05-20T10:12:35;85295.32;;;22.70;16.98
40948;BME280;49382;-25.924;28.194;2023-05-20T10:15:16;85288.61;;;24.13;18.14
40948;BME280;49382;-25.924;28.194;2023-05-20T10:17:27;85285.64;;;23.99;18.14
40948;BME280;49382;-25.924;28.194;2023-05-20T10:19:47;85279.40;;;22.64;19.29
40948;BME280;49382;-25.924;28.194;2023-05-20T10:22:13;85271.60;;;23.52;18.39
40948;BME280;49382;-25.924;28.194;2023-05-20T10:24:40;85266.35;;;23.28;17.79
40948;BME280;49382;-25.924;28.194;2023-05-20T10:27:09;85273.04;;;21.99;18.06
40948;BME280;49382;-25.924;28.194;2023-05-20T10:31:56;85258.78;;;23.52;17.54
40948;BME280;49382;-25.924;28.194;2023-05-20T10:34:22;85262.78;;;22.32;18.38
40948;BME280;49382;-25.924;28.194;2023-05-20T10:39:15;85253.44;;;22.41;17.95
40948;BME280;49382;-25.924;28.194;2023-05-20T10:41:38;85254.37;;;22.78;18.05
40948;BME280;49382;-25.924;28.194;2023-05-20T10:44:04;85247.20;;;22.43;18.32
40948;BME280;49382;-25.924;28.194;2023-05-20T10:46:30;85248.02;;;22.85;20.00
40948;BME280;49382;-25.924;28.194;2023-05-20T10:48:55;85243.26;;;22.32;20.93
40948;BME280;49382;-25.924;28.194;2023-05-20T10:51:21;85237.99;;;22.25;18.88
40948;BME280;49382;-25.924;28.194;2023-05-20T10:53:47;85231.80;;;21.39;18.29
40948;BME280;49382;-25.924;28.194;2023-05-20T10:56:17;85229.28;;;21.71;20.03
40948;BME280;49382;-25.924;28.194;2023-05-20T10:58:39;85226.61;;;22.11;18.67
40948;BME280;49382;-25.924;28.194;2023-05-20T11:01:04;85225.98;;;21.17;18.12
40948;BME280;49382;-25.924;28.194;2023-05-20T11:03:31;85220.89;;;20.68;18.91
40948;BME280;49382;-25.924;28.194;2023-05-20T11:05:56;85221.35;;;21.38;18.65
40948;BME280;49382;-25.924;28.194;2023-05-20T11:08:22;85216.51;;;21.32;19.06
40948;BME280;49382;-25.924;28.194;2023-05-20T11:10:48;85212.00;;;21.00;18.68
40948;BME280;49382;-25.924;28.194;2023-05-20T11:13:14;85207.63;;;21.49;17.64
40948;BME280;49382;-25.924;28.194;2023-05-20T11:15:39;85208.89;;;21.67;18.47
40948;BME280;49382;-25.924;28.194;2023-05-20T11:18:05;85201.22;;;21.34;18.32
40948;BME280;49382;-25.924;28.194;2023-05-20T11:20:31;85197.23;;;22.72;17.87
40948;BME280;49382;-25.924;28.194;2023-05-20T11:22:57;85198.59;;;22.68;17.06
40948;BME280;49382;-25.924;28.194;2023-05-20T11:25:23;85191.24;;;22.42;17.43
40948;BME280;49382;-25.924;28.194;2023-05-20T11:27:49;85192.50;;;22.68;17.31
40948;BME280;49382;-25.924;28.194;2023-05-20T11:30:15;85182.25;;;21.93;16.25
40948;BME280;49382;-25.924;28.194;2023-05-20T11:32:40;85176.19;;;21.65;16.70
40948;BME280;49382;-25.924;28.194;2023-05-20T11:35:07;85179.01;;;22.10;17.39
40948;BME280;49382;-25.924;28.194;2023-05-20T11:37:32;85175.36;;;22.07;16.05
40948;BME280;49382;-25.924;28.194;2023-05-20T11:40:03;85168.83;;;21.47;15.60
40948;BME280;49382;-25.924;28.194;2023-05-20T11:42:23;85171.15;;;22.48;15.98
40948;BME280;49382;-25.924;28.194;2023-05-20T11:44:49;85163.31;;;21.15;16.74
40948;BME280;49382;-25.924;28.194;2023-05-20T11:47:15;85159.05;;;21.90;15.59
40948;BME280;49382;-25.924;28.194;2023-05-20T11:49:41;85161.62;;;22.12;15.27
40948;BME280;49382;-25.924;28.194;2023-05-20T11:52:09;85163.61;;;22.17;15.19
40948;BME280;49382;-25.924;28.194;2023-05-20T11:54:35;85162.67;;;22.10;15.92
40948;BME280;49382;-25.924;28.194;2023-05-20T11:56:58;85158.28;;;22.38;15.56
40948;BME280;49382;-25.924;28.194;2023-05-20T11:59:24;85156.17;;;22.09;17.02
40948;BME280;49382;-25.924;28.194;2023-05-20T12:01:50;85151.21;;;21.82;16.08
40948;BME280;49382;-25.924;28.194;2023-05-20T12:04:16;85144.88;;;20.87;16.63
40948;BME280;49382;-25.924;28.194;2023-05-20T12:06:41;85143.45;;;21.79;16.48
40948;BME280;49382;-25.924;28.194;2023-05-20T12:09:07;85146.17;;;22.46;15.75
40948;BME280;49382;-25.924;28.194;2023-05-20T12:11:34;85143.88;;;20.86;16.09
40948;BME280;49382;-25.924;28.194;2023-05-20T12:13:59;85140.59;;;21.96;16.32
40948;BME280;49382;-25.924;28.194;2023-05-20T12:16:25;85138.62;;;22.51;15.64
40948;BME280;49382;-25.924;28.194;2023-05-20T12:18:51;85139.75;;;22.04;16.11
40948;BME280;49382;-25.924;28.194;2023-05-20T12:21:16;85136.69;;;22.11;16.02
40948;BME280;49382;-25.924;28.194;2023-05-20T12:23:42;85133.86;;;21.25;15.50
40948;BME280;49382;-25.924;28.194;2023-05-20T12:26:14;85137.22;;;21.22;15.65
40948;BME280;49382;-25.924;28.194;2023-05-20T12:28:34;85135.41;;;22.19;15.73
40948;BME280;49382;-25.924;28.194;2023-05-20T12:31:00;85136.10;;;22.01;14.84
40948;BME280;49382;-25.924;28.194;2023-05-20T12:33:26;85133.45;;;22.77;14.67
40948;BME280;49382;-25.924;28.194;2023-05-20T12:35:51;85131.04;;;22.36;15.30